createdAt,value
2018-12-17T00:00:12.019Z,75.52
2018-12-17T00:02:41.522Z,74.08
2018-12-17T00:05:10.364Z,75.27
2018-12-17T00:07:39.030Z,76.06
2018-12-17T00:10:07.965Z,76.61
2018-12-17T00:12:36.494Z,77.08
2018-12-17T00:15:05.239Z,76.31
2018-12-17T00:17:33.775Z,77.42
2018-12-17T00:20:02.296Z,76.81
2018-12-17T00:22:30.820Z,76.71
2018-12-17T00:24:59.172Z,74.43
2018-12-17T00:27:27.421Z,76.45
2018-12-17T00:29:55.692Z,76.98
2018-12-17T00:32:24.228Z,76.11
2018-12-17T00:34:52.911Z,77.55
2018-12-17T00:37:21.624Z,76.27
2018-12-17T00:39:50.245Z,78.01
2018-12-17T00:42:18.525Z,77.92
2018-12-17T00:44:46.871Z,76.07
2018-12-17T00:47:15.188Z,76.72
2018-12-17T00:49:43.687Z,75.38
2018-12-17T00:52:12.060Z,75.67
2018-12-17T00:54:40.417Z,75.97
2018-12-17T00:57:08.818Z,76.59
2018-12-17T00:59:37.099Z,73.17
2018-12-17T01:02:05.499Z,75.60
2018-12-17T01:04:34.163Z,76.62
2018-12-17T01:07:02.726Z,76.05
2018-12-17T01:09:31.284Z,76.64
2018-12-17T01:11:59.681Z,78.59
2018-12-17T01:14:28.159Z,77.73
2018-12-17T01:16:56.628Z,76.55
2018-12-17T01:19:26.022Z,77.01
2018-12-17T01:21:54.579Z,78.53
2018-12-17T01:24:23.018Z,80.57
2018-12-17T01:26:52.227Z,76.99
2018-12-17T01:29:20.992Z,77.70
2018-12-17T01:31:49.387Z,78.21
2018-12-17T01:34:17.998Z,76.53
2018-12-17T01:36:46.934Z,77.00
2018-12-17T01:39:15.399Z,75.63
2018-12-17T01:41:43.877Z,76.42
2018-12-17T01:44:12.515Z,75.89
2018-12-17T01:46:40.992Z,76.14
2018-12-17T01:49:09.450Z,77.77
2018-12-17T01:51:38.153Z,77.80
2018-12-17T01:54:06.634Z,77.51
2018-12-17T01:56:34.896Z,77.35
2018-12-17T01:59:03.400Z,76.62
2018-12-17T02:01:32.111Z,78.44
2018-12-17T02:04:00.705Z,78.14
2018-12-17T02:06:29.246Z,78.72
2018-12-17T02:08:57.768Z,77.97
2018-12-17T02:11:26.421Z,78.67
2018-12-17T02:13:54.801Z,77.91
2018-12-17T02:16:23.458Z,78.09
2018-12-17T02:18:52.163Z,77.54
2018-12-17T02:21:20.652Z,76.59
2018-12-17T02:23:49.000Z,77.00
2018-12-17T02:26:17.572Z,76.14
2018-12-17T02:28:46.127Z,76.25
2018-12-17T02:31:14.678Z,77.35
2018-12-17T02:33:42.976Z,77.30
2018-12-17T02:36:11.431Z,76.90
2018-12-17T02:38:42.571Z,76.76
2018-12-17T02:41:10.905Z,76.26
2018-12-17T02:43:39.329Z,77.54
2018-12-17T02:46:07.681Z,77.24
2018-12-17T02:48:36.069Z,79.69
2018-12-17T02:51:04.579Z,78.87
2018-12-17T02:53:33.047Z,78.77
2018-12-17T02:56:01.559Z,78.77
2018-12-17T02:58:29.972Z,75.18
2018-12-17T03:00:58.174Z,75.78
2018-12-17T03:03:26.369Z,79.24
2018-12-17T03:05:54.684Z,79.16
2018-12-17T03:08:23.417Z,76.73
2018-12-17T03:10:51.983Z,75.53
2018-12-17T03:13:21.437Z,76.98
2018-12-17T03:15:50.014Z,75.48
2018-12-17T03:18:18.320Z,77.09
2018-12-17T03:20:46.758Z,77.85
2018-12-17T03:23:15.144Z,79.28
2018-12-17T03:25:43.574Z,77.36
2018-12-17T03:28:11.945Z,77.96
2018-12-17T03:30:40.353Z,77.00
2018-12-17T03:33:08.731Z,77.11
2018-12-17T03:35:37.213Z,78.45
2018-12-17T03:38:05.638Z,79.05
2018-12-17T03:40:34.020Z,79.59
2018-12-17T03:43:02.526Z,78.38
2018-12-17T03:45:31.040Z,78.12
2018-12-17T03:47:59.376Z,78.21
2018-12-17T03:50:27.944Z,75.58
2018-12-17T03:52:56.481Z,76.09
2018-12-17T03:55:24.731Z,75.12
2018-12-17T03:57:53.042Z,74.93
2018-12-17T04:00:21.431Z,77.81
2018-12-17T04:02:49.850Z,77.43
2018-12-17T04:05:18.165Z,75.33
2018-12-17T04:07:46.604Z,77.58
2018-12-17T04:10:15.246Z,75.51
2018-12-17T04:12:44.031Z,76.39
2018-12-17T04:15:12.592Z,77.65
2018-12-17T04:17:40.990Z,76.49
2018-12-17T04:20:09.391Z,77.62
2018-12-17T04:22:37.955Z,77.45
2018-12-17T04:25:06.625Z,75.87
2018-12-17T04:27:34.903Z,77.13
2018-12-17T04:30:03.383Z,77.52
2018-12-17T04:32:31.762Z,79.24
2018-12-17T04:35:00.211Z,76.17
2018-12-17T04:37:28.565Z,76.42
2018-12-17T04:39:57.395Z,76.66
2018-12-17T04:42:25.546Z,78.18
2018-12-17T04:44:53.991Z,78.28
2018-12-17T04:47:22.382Z,78.37
2018-12-17T04:49:50.818Z,78.31
2018-12-17T04:52:19.288Z,78.87
2018-12-17T04:54:48.578Z,79.23
2018-12-17T04:57:17.338Z,79.37
2018-12-17T04:59:45.745Z,78.98
2018-12-17T05:02:14.244Z,79.39
2018-12-17T05:04:43.053Z,78.58
2018-12-17T05:07:11.691Z,77.15
2018-12-17T05:09:40.356Z,81.37
2018-12-17T05:12:09.001Z,83.32
2018-12-17T05:14:37.476Z,78.91
2018-12-17T05:17:06.040Z,76.97
2018-12-17T05:19:34.449Z,75.82
2018-12-17T05:22:02.817Z,77.27
2018-12-17T05:24:31.171Z,77.25
2018-12-17T05:26:59.858Z,72.21
2018-12-17T05:29:28.183Z,73.88
2018-12-17T05:31:57.420Z,75.03
2018-12-17T05:34:25.655Z,74.57
2018-12-17T05:36:54.012Z,73.21
2018-12-17T05:39:22.405Z,74.68
2018-12-17T05:41:50.901Z,73.84
2018-12-17T05:44:19.282Z,76.20
2018-12-17T05:46:47.556Z,75.61
2018-12-17T05:49:16.287Z,75.52
2018-12-17T05:51:45.347Z,78.02
2018-12-17T05:54:13.880Z,75.34
2018-12-17T05:56:42.291Z,76.16
2018-12-17T05:59:10.895Z,73.55
2018-12-17T06:01:39.394Z,74.80
2018-12-17T06:04:07.551Z,74.66
2018-12-17T06:06:35.920Z,76.30
2018-12-17T06:09:08.750Z,76.45
2018-12-17T06:11:37.297Z,80.64
2018-12-17T06:14:05.801Z,80.81
2018-12-17T06:16:34.288Z,76.76
2018-12-17T06:19:02.683Z,76.21
2018-12-17T06:21:31.226Z,75.24
2018-12-17T06:23:59.827Z,75.06
2018-12-17T06:26:28.153Z,76.93
2018-12-17T06:28:56.790Z,75.18
2018-12-17T06:31:25.339Z,76.23
2018-12-17T06:33:53.650Z,74.68
2018-12-17T06:36:22.383Z,74.88
2018-12-17T06:38:51.169Z,79.51
2018-12-17T06:41:19.661Z,72.06
2018-12-17T06:43:48.001Z,71.92
2018-12-17T06:46:16.551Z,72.71
2018-12-17T06:48:44.849Z,78.17
2018-12-17T06:51:13.292Z,78.20
2018-12-17T06:54:05.321Z,74.48
2018-12-17T06:56:33.641Z,75.59
2018-12-17T06:59:02.149Z,75.50
2018-12-17T07:01:32.065Z,72.77
2018-12-17T07:04:00.583Z,74.18
2018-12-17T07:06:29.729Z,76.20
2018-12-17T07:08:59.458Z,76.54
2018-12-17T07:11:32.948Z,77.65
2018-12-17T07:14:01.557Z,75.44
2018-12-17T07:16:30.954Z,75.36
2018-12-17T07:18:59.204Z,76.62
2018-12-17T07:21:28.059Z,77.21
2018-12-17T07:23:58.934Z,82.02
2018-12-17T07:26:26.897Z,73.69
2018-12-17T07:28:55.525Z,70.72
2018-12-17T07:31:23.821Z,73.75
2018-12-17T07:33:52.151Z,74.81
2018-12-17T07:36:20.663Z,76.15
2018-12-17T07:38:49.785Z,74.73
2018-12-17T07:41:18.282Z,72.85
2018-12-17T07:43:46.806Z,78.16
2018-12-17T07:46:15.147Z,78.09
2018-12-17T07:48:43.444Z,75.81
2018-12-17T07:51:12.300Z,76.29
2018-12-17T07:53:40.529Z,79.10
2018-12-17T07:56:09.046Z,79.30
2018-12-17T07:58:37.591Z,74.78
2018-12-17T08:01:06.182Z,75.14
2018-12-17T08:03:34.532Z,75.07
2018-12-17T08:06:03.833Z,71.20
2018-12-17T08:08:35.382Z,69.40
2018-12-17T08:11:03.153Z,69.60
2018-12-17T08:13:31.795Z,69.44
2018-12-17T08:16:00.462Z,69.99
2018-12-17T08:18:28.948Z,72.63
2018-12-17T08:20:57.296Z,70.69
2018-12-17T08:23:25.576Z,75.62
2018-12-17T08:25:54.290Z,71.42
2018-12-17T08:28:22.566Z,72.58
2018-12-17T08:30:50.909Z,71.99
2018-12-17T08:33:19.331Z,75.03
2018-12-17T08:35:47.752Z,73.53
2018-12-17T08:38:16.151Z,77.63
2018-12-17T08:40:44.531Z,71.91
2018-12-17T08:43:13.001Z,75.05
2018-12-17T08:45:41.768Z,71.03
2018-12-17T08:48:10.177Z,70.45
2018-12-17T08:50:38.676Z,69.83
2018-12-17T08:53:07.385Z,68.26
2018-12-17T08:55:35.756Z,68.96
2018-12-17T08:58:04.672Z,72.36
2018-12-17T09:00:33.338Z,69.97
2018-12-17T09:03:01.665Z,70.52
2018-12-17T09:05:29.943Z,71.11
2018-12-17T09:07:58.546Z,68.32
2018-12-17T09:10:26.926Z,73.83
2018-12-17T09:12:55.312Z,74.34
2018-12-17T09:15:23.793Z,71.13
2018-12-17T09:17:53.335Z,69.10
2018-12-17T09:20:22.346Z,68.82
2018-12-17T09:23:07.530Z,68.01
2018-12-17T09:25:50.273Z,68.88
2018-12-17T09:28:18.638Z,67.75
2018-12-17T09:30:47.052Z,67.09
2018-12-17T09:33:15.650Z,68.48
2018-12-17T09:35:44.527Z,66.77
2018-12-17T09:38:13.570Z,67.20
2018-12-17T09:40:42.184Z,71.36
2018-12-17T09:43:14.512Z,69.42
2018-12-17T09:45:42.957Z,69.41
2018-12-17T09:48:13.431Z,68.74
2018-12-17T09:50:42.244Z,66.52
2018-12-17T09:53:19.220Z,69.95
2018-12-17T09:55:47.727Z,69.65
2018-12-17T09:58:16.260Z,65.53
2018-12-17T10:00:52.943Z,65.47
2018-12-17T10:03:21.659Z,64.80
2018-12-17T10:05:50.173Z,65.27
2018-12-17T10:08:18.955Z,66.00
2018-12-17T10:11:04.631Z,66.16
2018-12-17T10:13:53.318Z,67.35
2018-12-17T10:16:23.545Z,67.34
2018-12-17T10:18:52.363Z,67.76
2018-12-17T10:21:21.093Z,68.27
2018-12-17T10:23:49.631Z,71.01
2018-12-17T10:26:18.160Z,71.88
2018-12-17T10:28:48.085Z,66.65
2018-12-17T10:31:16.706Z,67.63
2018-12-17T10:33:45.574Z,66.25
2018-12-17T10:36:15.383Z,66.40
2018-12-17T10:38:43.832Z,66.62
2018-12-17T10:41:12.204Z,66.68
2018-12-17T10:43:40.617Z,67.65
2018-12-17T10:46:09.566Z,66.32
2018-12-17T10:48:38.106Z,66.06
2018-12-17T10:51:06.508Z,66.13
2018-12-17T10:53:35.070Z,69.90
2018-12-17T10:56:04.350Z,67.26
2018-12-17T10:58:32.863Z,66.55
2018-12-17T11:01:06.741Z,66.56
2018-12-17T11:03:43.391Z,65.91
2018-12-17T11:06:15.491Z,65.53
2018-12-17T11:08:43.816Z,68.17
2018-12-17T11:11:12.544Z,65.95
2018-12-17T11:13:41.163Z,69.54
2018-12-17T11:16:10.195Z,67.49
2018-12-17T11:18:38.794Z,65.00
2018-12-17T11:21:16.346Z,68.02
2018-12-17T11:23:45.347Z,65.35
2018-12-17T11:26:13.926Z,64.87
2018-12-17T11:28:46.024Z,66.92
2018-12-17T11:31:21.072Z,66.19
2018-12-17T11:33:56.561Z,66.29
2018-12-17T11:36:30.229Z,66.45
2018-12-17T11:38:58.642Z,63.87
2018-12-17T11:41:27.282Z,68.10
2018-12-17T11:43:55.947Z,65.16
2018-12-17T11:46:24.296Z,65.09
2018-12-17T11:48:53.013Z,65.41
2018-12-17T11:51:21.738Z,65.41
2018-12-17T11:53:50.276Z,67.25
2018-12-17T11:56:20.998Z,67.26
2018-12-17T11:58:49.629Z,71.87
2018-12-17T12:01:18.226Z,67.21
2018-12-17T12:03:46.821Z,65.87
2018-12-17T12:06:16.007Z,69.29
2018-12-17T12:08:44.660Z,72.77
2018-12-17T12:11:13.045Z,66.12
2018-12-17T12:13:41.420Z,65.74
2018-12-17T12:16:09.989Z,67.82
2018-12-17T12:18:45.912Z,68.30
2018-12-17T12:21:14.532Z,70.10
2018-12-17T12:23:43.178Z,69.98
2018-12-17T12:26:11.653Z,69.97
2018-12-17T12:28:40.019Z,71.68
2018-12-17T12:31:08.422Z,67.29
2018-12-17T12:33:36.972Z,66.71
2018-12-17T12:36:05.411Z,69.13
2018-12-17T12:38:33.903Z,65.73
2018-12-17T12:41:19.235Z,65.52
2018-12-17T12:43:47.792Z,65.17
2018-12-17T12:46:17.781Z,64.70
2018-12-17T12:48:46.180Z,68.57
2018-12-17T12:51:14.627Z,66.44
2018-12-17T12:53:43.185Z,67.59
2018-12-17T12:56:11.882Z,67.67
2018-12-17T12:58:40.483Z,67.76
2018-12-17T13:01:08.847Z,69.21
2018-12-17T13:03:38.085Z,67.69
2018-12-17T13:06:06.900Z,66.42
2018-12-17T13:08:35.212Z,67.91
2018-12-17T13:11:03.833Z,67.62
2018-12-17T13:13:32.625Z,68.39
2018-12-17T13:16:01.119Z,72.76
2018-12-17T13:18:29.812Z,73.78
2018-12-17T13:20:58.347Z,69.48
2018-12-17T13:23:26.733Z,68.36
2018-12-17T13:25:55.345Z,69.49
2018-12-17T13:28:24.199Z,67.34
2018-12-17T13:30:52.910Z,69.16
2018-12-17T13:33:21.417Z,70.86
2018-12-17T13:35:49.882Z,68.39
2018-12-17T13:38:18.529Z,75.44
2018-12-17T13:40:46.981Z,75.17
2018-12-17T13:43:15.424Z,75.12
2018-12-17T13:45:44.042Z,66.73
2018-12-17T13:48:14.076Z,67.99
2018-12-17T13:50:43.499Z,74.79
2018-12-17T13:53:17.514Z,76.02
2018-12-17T13:55:53.464Z,73.18
2018-12-17T13:58:22.154Z,70.88
2018-12-17T14:00:50.557Z,72.30
2018-12-17T14:03:19.268Z,69.21
2018-12-17T14:05:47.732Z,67.78
2018-12-17T14:08:16.162Z,73.97
2018-12-17T14:10:54.069Z,70.58
2018-12-17T14:13:23.345Z,69.17
2018-12-17T14:15:54.726Z,71.95
2018-12-17T14:18:28.553Z,67.83
2018-12-17T14:21:03.289Z,71.37
2018-12-17T14:23:31.719Z,69.32
2018-12-17T14:26:00.322Z,72.56
2018-12-17T14:28:28.746Z,73.30
2018-12-17T14:30:57.067Z,69.22
2018-12-17T14:33:25.511Z,68.65
2018-12-17T14:35:59.821Z,74.94
2018-12-17T14:38:28.187Z,79.24
2018-12-17T14:40:56.675Z,75.25
2018-12-17T14:43:25.300Z,70.31
2018-12-17T14:45:53.729Z,70.60
2018-12-17T14:48:26.749Z,70.19
2018-12-17T14:50:55.138Z,69.94
2018-12-17T14:53:23.571Z,71.96
2018-12-17T14:55:52.126Z,75.25
2018-12-17T14:58:20.838Z,72.57
2018-12-17T15:00:49.428Z,71.75
2018-12-17T15:03:17.759Z,70.81
2018-12-17T15:05:46.607Z,71.63
2018-12-17T15:08:15.502Z,71.70
2018-12-17T15:10:44.144Z,76.13
2018-12-17T15:13:12.932Z,73.36
2018-12-17T15:15:41.293Z,72.99
2018-12-17T15:18:10.585Z,77.27
2018-12-17T15:20:39.308Z,75.20
2018-12-17T15:23:07.879Z,73.41
2018-12-17T15:25:36.355Z,73.47
2018-12-17T15:28:04.668Z,72.99
2018-12-17T15:30:33.285Z,75.63
2018-12-17T15:33:01.793Z,73.25
2018-12-17T15:35:30.369Z,72.31
2018-12-17T15:37:58.601Z,72.32
2018-12-17T15:40:27.030Z,73.27
2018-12-17T15:42:55.245Z,72.15
2018-12-17T15:45:23.661Z,71.84
2018-12-17T15:47:52.251Z,72.33
2018-12-17T15:50:20.795Z,71.71
2018-12-17T15:52:49.313Z,71.51
2018-12-17T15:55:18.620Z,71.81
2018-12-17T15:57:47.432Z,72.55
2018-12-17T16:00:16.025Z,72.23
2018-12-17T16:02:44.334Z,72.34
2018-12-17T16:05:13.054Z,75.86
2018-12-17T16:07:41.484Z,79.00
2018-12-17T16:10:10.284Z,74.42
2018-12-17T16:12:38.665Z,76.18
2018-12-17T16:15:07.879Z,76.04
2018-12-17T16:17:36.610Z,76.28
2018-12-17T16:20:05.535Z,75.96
2018-12-17T16:22:34.240Z,77.02
2018-12-17T16:25:03.003Z,82.79
2018-12-17T16:27:31.323Z,81.58
2018-12-17T16:30:00.086Z,82.00
2018-12-17T16:32:28.733Z,82.24
2018-12-17T16:34:57.221Z,82.67
2018-12-17T16:37:25.589Z,79.95
2018-12-17T16:39:53.970Z,82.33
2018-12-17T16:42:22.446Z,77.17
2018-12-17T16:44:50.830Z,79.05
2018-12-17T16:47:19.379Z,78.64
2018-12-17T16:49:47.666Z,79.53
2018-12-17T16:52:16.073Z,78.51
2018-12-17T16:54:44.566Z,76.63
2018-12-17T16:57:12.947Z,76.15
2018-12-17T17:02:16.625Z,75.01
2018-12-17T17:04:45.164Z,76.44
2018-12-17T17:07:13.570Z,76.62
2018-12-17T17:09:42.158Z,77.93
2018-12-17T17:12:10.419Z,76.52
2018-12-17T17:14:38.776Z,76.59
2018-12-17T17:17:07.446Z,75.86
2018-12-17T17:19:35.887Z,77.20
2018-12-17T17:22:04.928Z,77.73
2018-12-17T17:24:33.519Z,78.38
2018-12-17T17:27:02.849Z,78.57
2018-12-17T17:29:31.384Z,77.59
2018-12-17T17:32:22.075Z,78.75
2018-12-17T17:34:50.323Z,77.72
2018-12-17T17:37:18.781Z,78.75
2018-12-17T17:39:47.145Z,75.16
2018-12-17T17:42:17.778Z,77.69
2018-12-17T17:44:46.234Z,78.20
2018-12-17T17:47:14.731Z,74.29
2018-12-17T17:49:43.027Z,76.35
2018-12-17T17:52:11.436Z,76.35
2018-12-17T17:54:44.757Z,74.10
2018-12-17T17:57:13.693Z,72.15
2018-12-17T17:59:42.441Z,73.66
2018-12-17T18:02:10.834Z,73.08
2018-12-17T18:04:39.168Z,73.71
2018-12-17T18:07:07.574Z,74.79
2018-12-17T18:09:36.036Z,74.49
2018-12-17T18:12:04.432Z,75.30
2018-12-17T18:14:32.981Z,74.80
2018-12-17T18:17:01.372Z,75.46
2018-12-17T18:19:29.634Z,75.52
2018-12-17T18:21:57.779Z,75.38
2018-12-17T18:24:25.937Z,74.69
2018-12-17T18:26:54.886Z,76.09
2018-12-17T18:29:23.330Z,74.48
2018-12-17T18:31:52.133Z,75.59
2018-12-17T18:34:31.719Z,75.89
2018-12-17T18:37:00.020Z,76.29
2018-12-17T18:39:28.563Z,76.36
2018-12-17T18:41:56.907Z,75.72
2018-12-17T18:44:25.301Z,76.32
2018-12-17T18:46:53.592Z,76.42
2018-12-17T18:49:21.883Z,76.60
2018-12-17T18:51:50.147Z,77.06
2018-12-17T18:54:18.437Z,77.26
2018-12-17T18:56:46.828Z,77.34
2018-12-17T18:59:15.193Z,77.54
2018-12-17T19:01:43.448Z,76.77
2018-12-17T19:04:11.711Z,76.99
2018-12-17T19:06:39.965Z,76.95
2018-12-17T19:09:08.821Z,76.57
2018-12-17T19:11:37.070Z,76.44
2018-12-17T19:14:05.476Z,77.74
2018-12-17T19:16:34.115Z,77.78
2018-12-17T19:19:02.862Z,77.52
2018-12-17T19:21:31.246Z,78.66
2018-12-17T19:23:59.827Z,76.09
2018-12-17T19:26:28.360Z,76.44
2018-12-17T19:28:56.777Z,76.04
2018-12-17T19:31:25.314Z,77.79
2018-12-17T19:33:53.758Z,76.16
2018-12-17T19:36:22.192Z,76.77
2018-12-17T19:38:50.671Z,75.82
2018-12-17T19:41:18.981Z,75.84
2018-12-17T19:43:47.465Z,75.60
2018-12-17T19:46:15.837Z,75.26
2018-12-17T19:48:44.339Z,76.45
2018-12-17T19:51:12.932Z,77.42
2018-12-17T19:53:41.566Z,77.20
2018-12-17T19:56:09.982Z,78.39
2018-12-17T19:58:38.304Z,80.49
2018-12-17T20:01:07.135Z,78.62
2018-12-17T20:03:35.400Z,77.20
2018-12-17T20:06:03.754Z,76.91
2018-12-17T20:08:31.973Z,78.39
2018-12-17T20:11:00.202Z,76.91
2018-12-17T20:13:28.459Z,76.14
2018-12-17T20:15:56.955Z,77.44
2018-12-17T20:18:25.443Z,75.84
2018-12-17T20:20:53.738Z,77.25
2018-12-17T20:23:22.062Z,76.46
2018-12-17T20:25:50.274Z,78.04
2018-12-17T20:28:18.793Z,77.70
2018-12-17T20:30:47.025Z,77.63
2018-12-17T20:33:15.484Z,77.40
2018-12-17T20:35:43.831Z,78.81
2018-12-17T20:38:12.357Z,75.84
2018-12-17T20:40:40.755Z,75.49
2018-12-17T20:43:09.182Z,74.65
2018-12-17T20:45:37.590Z,76.10
2018-12-17T20:48:06.056Z,78.13
2018-12-17T20:50:34.590Z,77.48
2018-12-17T20:53:02.914Z,78.66
2018-12-17T20:55:31.280Z,77.66
2018-12-17T20:57:59.614Z,79.00
2018-12-17T21:00:28.987Z,78.22
2018-12-17T21:03:00.267Z,78.60
2018-12-17T21:05:27.669Z,78.95
2018-12-17T21:07:55.990Z,78.82
2018-12-17T21:10:24.358Z,77.72
2018-12-17T21:12:52.788Z,77.74
2018-12-17T21:15:21.437Z,78.73
2018-12-17T21:17:50.254Z,81.88
2018-12-17T21:20:18.575Z,79.64
2018-12-17T21:22:47.009Z,77.89
2018-12-17T21:25:18.580Z,77.78
2018-12-17T21:27:47.557Z,78.65
2018-12-17T21:30:15.838Z,77.92
2018-12-17T21:32:44.153Z,78.37
2018-12-17T21:35:12.729Z,79.43
2018-12-17T21:37:40.993Z,79.41
2018-12-17T21:40:09.767Z,79.57
2018-12-17T21:42:38.315Z,78.28
2018-12-17T21:45:07.374Z,80.18
2018-12-17T21:47:35.863Z,79.15
2018-12-17T21:50:05.285Z,79.88
2018-12-17T21:52:33.659Z,79.33
2018-12-17T21:55:02.215Z,79.49
2018-12-17T21:57:31.001Z,78.89
2018-12-17T21:59:59.612Z,78.90
2018-12-17T22:02:27.941Z,80.99
2018-12-17T22:04:56.371Z,79.77
2018-12-17T22:07:24.559Z,79.43
2018-12-17T22:09:53.067Z,79.50
2018-12-17T22:12:21.367Z,78.43
2018-12-17T22:14:49.903Z,78.69
2018-12-17T22:17:18.336Z,79.46
2018-12-17T22:19:46.922Z,80.05
2018-12-17T22:22:15.933Z,80.01
2018-12-17T22:24:44.371Z,81.17
2018-12-17T22:27:13.053Z,80.60
2018-12-17T22:29:41.468Z,78.99
2018-12-17T22:32:09.741Z,79.93
2018-12-17T22:34:38.161Z,80.60
2018-12-17T22:37:06.552Z,81.27
2018-12-17T22:39:37.051Z,80.12
2018-12-17T22:42:05.755Z,80.68
2018-12-17T22:44:34.130Z,79.07
2018-12-17T22:47:02.475Z,80.11
2018-12-17T22:49:30.847Z,79.98
2018-12-17T22:51:59.146Z,81.05
2018-12-17T22:54:27.570Z,81.03
2018-12-17T22:57:00.767Z,79.46
2018-12-17T22:59:29.520Z,81.33
2018-12-17T23:01:57.941Z,79.51
2018-12-17T23:04:26.247Z,79.03
2018-12-17T23:07:07.563Z,82.20
2018-12-17T23:09:46.771Z,82.04
2018-12-17T23:12:25.982Z,81.44
2018-12-17T23:15:05.146Z,81.57
2018-12-17T23:17:40.053Z,82.11
2018-12-17T23:20:13.103Z,82.57
2018-12-17T23:22:54.572Z,84.68
2018-12-17T23:25:32.257Z,84.85
2018-12-17T23:28:00.744Z,84.52
2018-12-17T23:30:29.193Z,84.97
2018-12-17T23:32:59.100Z,84.39
2018-12-17T23:35:28.084Z,84.24
2018-12-17T23:37:56.632Z,83.64
2018-12-17T23:40:25.016Z,83.04
2018-12-17T23:42:53.581Z,82.76
2018-12-17T23:45:22.185Z,84.82
2018-12-17T23:47:50.604Z,83.00
2018-12-17T23:50:19.442Z,83.09
2018-12-17T23:52:48.209Z,82.90
2018-12-17T23:55:17.119Z,83.22
2018-12-17T23:57:45.959Z,82.66
